Navigator Spirit — C6WL4 — position and weather

sailwx.info

Track history (hours):
 
Tides and Currents Weather Stations Pressure Air Temp Water Temp Dewpoint Dewpoint Depression Visibility Wind Speed Wind Dir Waves Ship Positions

Navigator Spirit

Last reported at 2016-Dec-02 07:33 UTC. Time now 2016-Dec-05 20:36 UTC.
Position N 29°34' W 093°16'.

Length 241 m; draft 8.5 m.

Type: Tanker. MMSI: 309198000.

Date/timePositionNaut miles runAvg speedWind from/ knotsBaromVisibWave heightAir tempDewpointWater temp
2016-Dec-02 07:33N 29°34' W 093°16'1110.7
2016-Dec-02 06:33N 29°44' W 093°20'9 9.4
2016-Dec-02 05:33N 29°53' W 093°21'8 7.8
2016-Dec-02 04:33N 30°01' W 093°20'8 7.8
2016-Dec-02 03:33N 30°09' W 093°20'2 2.4
2016-Dec-02 02:33N 30°11' W 093°19'0 0.0
2016-Dec-02 01:33N 30°11' W 093°19'0 0.0
2016-Dec-02 00:33N 30°11' W 093°18'0 0.0
2016-Dec-01 23:33N 30°11' W 093°19'0 0.0
2016-Dec-01 22:33N 30°11' W 093°19'0 0.0
2016-Dec-01 21:33N 30°11' W 093°19'0 0.0
2016-Dec-01 20:33N 30°11' W 093°19'0 0.0
2016-Dec-01 19:33N 30°11' W 093°19'0 0.0
2016-Dec-01 18:33N 30°11' W 093°19'0 0.0
2016-Dec-01 17:33N 30°11' W 093°19'0 0.0
2016-Dec-01 16:33N 30°11' W 093°19'0 0.0
2016-Dec-01 15:33N 30°11' W 093°19'0 0.0
2016-Dec-01 14:33N 30°11' W 093°18'1 0.9
2016-Dec-01 13:33N 30°10' W 093°19'1 0.8
2016-Dec-01 12:32N 30°10' W 093°20'0 0.0
2016-Dec-01 11:32N 30°10' W 093°20'0 0.0
2016-Dec-01 10:32N 30°10' W 093°20'0 0.0
2016-Dec-01 09:32N 30°10' W 093°20'0 0.0
2016-Dec-01 08:32N 30°10' W 093°20'0 0.0
2016-Dec-01 07:32N 30°10' W 093°20'0 0.0
2016-Dec-01 06:32N 30°10' W 093°20'0 0.0
2016-Dec-01 05:32N 30°10' W 093°20'0 0.0
2016-Dec-01 04:32N 30°10' W 093°20'0 0.0
2016-Dec-01 03:32N 30°10' W 093°20'0 0.0
2016-Dec-01 02:32N 30°10' W 093°20'0 0.0
2016-Dec-01 01:32N 30°10' W 093°20'0 0.0
2016-Dec-01 00:32N 30°10' W 093°20'0 0.0
2016-Nov-30 23:32N 30°10' W 093°20'0 0.0
2016-Nov-30 22:32N 30°10' W 093°20'0 0.0
2016-Nov-30 21:32N 30°10' W 093°20'0 0.0
2016-Nov-30 20:32N 30°10' W 093°20'0 0.0
2016-Nov-30 19:32N 30°10' W 093°20'0 0.0
2016-Nov-30 18:32N 30°10' W 093°20'0 0.0
2016-Nov-30 17:32N 30°10' W 093°20'0 0.0
2016-Nov-30 16:32N 30°10' W 093°20'0 0.0
2016-Nov-30 15:32N 30°10' W 093°20'0 0.0
2016-Nov-30 14:32N 30°10' W 093°20'0 0.0
2016-Nov-30 13:32N 30°10' W 093°20'0 0.0
2016-Nov-30 12:32N 30°10' W 093°20'0 0.0
2016-Nov-30 11:32N 30°10' W 093°20'0 0.0
2016-Nov-30 10:32N 30°10' W 093°20'0 0.0
2016-Nov-30 09:32N 30°10' W 093°20'0 0.0
2016-Nov-30 08:32N 30°10' W 093°20'0 0.0
2016-Nov-30 07:32N 30°10' W 093°20'0 0.0
2016-Nov-30 06:32N 30°10' W 093°20'0 0.0
2016-Nov-30 05:32N 30°10' W 093°20'0 0.0
2016-Nov-30 04:32N 30°10' W 093°20'0 0.0
2016-Nov-30 03:33N 30°10' W 093°20'4 4.2
2016-Nov-30 02:33N 30°05' W 093°20'7 6.8
2016-Nov-30 01:33N 29°59' W 093°20'8 8.5
2016-Nov-30 00:33N 29°50' W 093°21'  
2016-Nov-26 01:15N 25°37' W 079°33'911.3
2016-Nov-26 00:29N 25°45' W 079°32'1411.4
2016-Nov-25 23:16N 25°59' W 079°30'811.1
2016-Nov-25 22:31N 26°07' W 079°30'  
Track history (hours):
 
Tides and Currents Weather Stations Pressure Air Temp Water Temp Dewpoint Dewpoint Depression Visibility Wind Speed Wind Dir Waves Ship Positions

Navigator Spirit

Last reported at 2016-Dec-02 07:33 UTC. Time now 2016-Dec-05 20:36 UTC.
Position N 29°34' W 093°16'.

Length 241 m; draft 8.5 m.

Type: Tanker. MMSI: 309198000.

Date/timePositionNaut miles runAvg speedWind from/ knotsBaromVisibWave heightAir tempDewpointWater temp
2016-Dec-02 07:33N 29°34' W 093°16'1110.7
2016-Dec-02 06:33N 29°44' W 093°20'9 9.4
2016-Dec-02 05:33N 29°53' W 093°21'8 7.8
2016-Dec-02 04:33N 30°01' W 093°20'8 7.8
2016-Dec-02 03:33N 30°09' W 093°20'2 2.4
2016-Dec-02 02:33N 30°11' W 093°19'0 0.0
2016-Dec-02 01:33N 30°11' W 093°19'0 0.0
2016-Dec-02 00:33N 30°11' W 093°18'0 0.0
2016-Dec-01 23:33N 30°11' W 093°19'0 0.0
2016-Dec-01 22:33N 30°11' W 093°19'0 0.0
2016-Dec-01 21:33N 30°11' W 093°19'0 0.0
2016-Dec-01 20:33N 30°11' W 093°19'0 0.0
2016-Dec-01 19:33N 30°11' W 093°19'0 0.0
2016-Dec-01 18:33N 30°11' W 093°19'0 0.0
2016-Dec-01 17:33N 30°11' W 093°19'0 0.0
2016-Dec-01 16:33N 30°11' W 093°19'0 0.0
2016-Dec-01 15:33N 30°11' W 093°19'0 0.0
2016-Dec-01 14:33N 30°11' W 093°18'1 0.9
2016-Dec-01 13:33N 30°10' W 093°19'1 0.8
2016-Dec-01 12:32N 30°10' W 093°20'0 0.0
2016-Dec-01 11:32N 30°10' W 093°20'0 0.0
2016-Dec-01 10:32N 30°10' W 093°20'0 0.0
2016-Dec-01 09:32N 30°10' W 093°20'0 0.0
2016-Dec-01 08:32N 30°10' W 093°20'0 0.0
2016-Dec-01 07:32N 30°10' W 093°20'0 0.0
2016-Dec-01 06:32N 30°10' W 093°20'0 0.0
2016-Dec-01 05:32N 30°10' W 093°20'0 0.0
2016-Dec-01 04:32N 30°10' W 093°20'0 0.0
2016-Dec-01 03:32N 30°10' W 093°20'0 0.0
2016-Dec-01 02:32N 30°10' W 093°20'0 0.0
2016-Dec-01 01:32N 30°10' W 093°20'0 0.0
2016-Dec-01 00:32N 30°10' W 093°20'0 0.0
2016-Nov-30 23:32N 30°10' W 093°20'0 0.0
2016-Nov-30 22:32N 30°10' W 093°20'0 0.0
2016-Nov-30 21:32N 30°10' W 093°20'0 0.0
2016-Nov-30 20:32N 30°10' W 093°20'0 0.0
2016-Nov-30 19:32N 30°10' W 093°20'0 0.0
2016-Nov-30 18:32N 30°10' W 093°20'0 0.0
2016-Nov-30 17:32N 30°10' W 093°20'0 0.0
2016-Nov-30 16:32N 30°10' W 093°20'0 0.0
2016-Nov-30 15:32N 30°10' W 093°20'0 0.0
2016-Nov-30 14:32N 30°10' W 093°20'0 0.0
2016-Nov-30 13:32N 30°10' W 093°20'0 0.0
2016-Nov-30 12:32N 30°10' W 093°20'0 0.0
2016-Nov-30 11:32N 30°10' W 093°20'0 0.0
2016-Nov-30 10:32N 30°10' W 093°20'0 0.0
2016-Nov-30 09:32N 30°10' W 093°20'0 0.0
2016-Nov-30 08:32N 30°10' W 093°20'0 0.0
2016-Nov-30 07:32N 30°10' W 093°20'0 0.0
2016-Nov-30 06:32N 30°10' W 093°20'0 0.0
2016-Nov-30 05:32N 30°10' W 093°20'0 0.0
2016-Nov-30 04:32N 30°10' W 093°20'0 0.0
2016-Nov-30 03:33N 30°10' W 093°20'4 4.2
2016-Nov-30 02:33N 30°05' W 093°20'7 6.8
2016-Nov-30 01:33N 29°59' W 093°20'8 8.5
2016-Nov-30 00:33N 29°50' W 093°21'  
2016-Nov-26 01:15N 25°37' W 079°33'911.3
2016-Nov-26 00:29N 25°45' W 079°32'1411.4
2016-Nov-25 23:16N 25°59' W 079°30'811.1
2016-Nov-25 22:31N 26°07' W 079°30'  

Dump ship's entire track history